createdAt,value
2023-04-29T00:01:23.966Z,1.67
2023-04-29T00:03:29.036Z,1.40
2023-04-29T00:05:33.688Z,1.40
2023-04-29T00:07:37.413Z,1.40
2023-04-29T00:09:40.355Z,1.60
2023-04-29T00:11:43.363Z,1.50
2023-04-29T00:13:46.630Z,1.70
2023-04-29T00:15:52.979Z,1.50
2023-04-29T00:18:03.221Z,1.53
2023-04-29T00:20:07.586Z,1.50
2023-04-29T00:22:10.625Z,1.80
2023-04-29T00:24:13.516Z,1.60
2023-04-29T00:26:17.725Z,1.57
2023-04-29T00:28:23.339Z,1.83
2023-04-29T00:30:26.231Z,1.70
2023-04-29T00:32:29.153Z,1.77
2023-04-29T00:34:35.124Z,1.60
2023-04-29T00:36:38.301Z,1.73
2023-04-29T00:38:41.152Z,2.10
2023-04-29T00:40:44.737Z,2.00
2023-04-29T00:42:47.912Z,2.10
2023-04-29T00:44:52.277Z,2.93
2023-04-29T00:46:57.718Z,2.47
2023-04-29T00:49:02.761Z,2.30
2023-04-29T00:51:08.717Z,2.40
2023-04-29T00:53:13.015Z,2.70
2023-04-29T00:55:16.303Z,2.23
2023-04-29T00:57:21.926Z,2.70
2023-04-29T00:59:31.929Z,2.60
2023-04-29T01:01:35.256Z,2.57
2023-04-29T01:03:38.927Z,2.60
2023-04-29T01:05:43.310Z,2.90
2023-04-29T01:07:59.871Z,3.00
2023-04-29T01:10:07.553Z,3.00
2023-04-29T01:12:19.411Z,3.43
2023-04-29T01:14:24.160Z,3.50
2023-04-29T01:16:33.924Z,3.50
2023-04-29T01:18:45.340Z,4.17
2023-04-29T01:20:51.178Z,4.17
2023-04-29T01:22:55.611Z,4.67
2023-04-29T01:25:01.861Z,4.40
2023-04-29T01:27:15.041Z,4.97
2023-04-29T01:29:31.999Z,4.50
2023-04-29T01:31:41.540Z,4.67
2023-04-29T01:33:56.203Z,4.70
2023-04-29T01:36:09.797Z,5.00
2023-04-29T01:38:19.349Z,5.50
2023-04-29T01:40:30.304Z,6.03
2023-04-29T01:42:46.802Z,5.83
2023-04-29T01:44:56.516Z,5.17
2023-04-29T01:47:02.570Z,6.03
2023-04-29T01:49:13.015Z,6.47
2023-04-29T01:51:19.509Z,6.33
2023-04-29T01:53:22.473Z,6.20
2023-04-29T01:55:27.766Z,6.83
2023-04-29T01:57:48.085Z,5.97
2023-04-29T02:00:09.037Z,6.47
2023-04-29T02:02:25.000Z,6.50
2023-04-29T02:04:35.749Z,6.60
2023-04-29T02:06:41.394Z,6.77
2023-04-29T02:08:45.939Z,6.57
2023-04-29T02:10:57.413Z,6.37
2023-04-29T02:13:14.683Z,6.70
2023-04-29T02:15:18.870Z,6.87
2023-04-29T02:17:22.834Z,6.30
2023-04-29T02:19:26.625Z,6.70
2023-04-29T02:21:34.982Z,7.03
2023-04-29T02:23:38.364Z,6.37
2023-04-29T02:25:41.235Z,6.63
2023-04-29T02:27:45.899Z,6.87
2023-04-29T02:29:48.827Z,6.63
2023-04-29T02:31:53.928Z,7.07
2023-04-29T02:33:58.826Z,6.80
2023-04-29T02:36:01.732Z,7.63
2023-04-29T02:38:04.867Z,7.13
2023-04-29T02:40:08.914Z,7.50
2023-04-29T02:42:12.089Z,7.40
2023-04-29T02:44:19.626Z,7.97
2023-04-29T02:46:22.802Z,7.40
2023-04-29T02:48:28.933Z,8.30
2023-04-29T02:50:31.807Z,7.33
2023-04-29T02:52:34.918Z,7.80
2023-04-29T02:54:42.286Z,7.97
2023-04-29T02:56:45.244Z,8.00
2023-04-29T02:58:48.198Z,7.67
2023-04-29T03:00:52.651Z,7.57
2023-04-29T03:02:55.595Z,7.97
2023-04-29T03:04:58.887Z,7.83
2023-04-29T03:07:07.900Z,8.27
2023-04-29T03:09:10.833Z,8.03
2023-04-29T03:11:13.894Z,7.87
2023-04-29T03:13:18.727Z,7.80
2023-04-29T03:15:21.646Z,7.40
2023-04-29T03:17:30.606Z,7.03
2023-04-29T03:19:33.822Z,7.43
2023-04-29T03:21:37.016Z,7.47
2023-04-29T03:23:42.203Z,8.40
2023-04-29T03:25:48.338Z,7.90
2023-04-29T03:27:54.225Z,7.80
2023-04-29T03:29:57.390Z,8.37
2023-04-29T03:32:00.446Z,7.20
2023-04-29T03:34:05.532Z,7.47
2023-04-29T03:36:11.620Z,7.37
2023-04-29T03:38:20.181Z,7.37
2023-04-29T03:40:24.434Z,7.13
2023-04-29T03:42:29.834Z,8.57
2023-04-29T03:44:32.890Z,8.40
2023-04-29T03:46:37.565Z,8.17
2023-04-29T03:48:40.928Z,8.30
2023-04-29T03:50:45.335Z,9.03
2023-04-29T03:52:48.388Z,8.73
2023-04-29T03:54:53.084Z,8.77
2023-04-29T03:56:56.512Z,9.40
2023-04-29T03:59:00.068Z,8.93
2023-04-29T04:01:03.948Z,8.60
2023-04-29T04:03:17.587Z,8.60
2023-04-29T04:05:21.013Z,8.77
2023-04-29T04:07:30.206Z,8.17
2023-04-29T04:09:52.034Z,8.13
2023-04-29T04:11:57.196Z,8.90
2023-04-29T04:14:00.579Z,8.43
2023-04-29T04:16:03.538Z,8.27
2023-04-29T04:18:07.257Z,9.20
2023-04-29T04:20:11.611Z,9.20
2023-04-29T04:22:14.743Z,9.50
2023-04-29T04:24:26.370Z,9.53
2023-04-29T04:26:29.369Z,9.70
2023-04-29T04:28:50.168Z,9.90
2023-04-29T04:31:01.508Z,10.50
2023-04-29T04:33:05.913Z,9.87
2023-04-29T04:35:14.037Z,9.53
2023-04-29T04:37:20.878Z,9.40
2023-04-29T04:39:30.831Z,9.70
2023-04-29T04:41:38.126Z,9.63
2023-04-29T04:43:43.042Z,9.83
2023-04-29T04:45:53.786Z,9.53
2023-04-29T04:47:57.065Z,9.90
2023-04-29T04:50:06.568Z,10.40
2023-04-29T04:52:11.776Z,10.73
2023-04-29T04:54:14.681Z,9.53
2023-04-29T04:56:22.030Z,10.50
2023-04-29T04:58:26.737Z,10.60
2023-04-29T05:00:29.850Z,10.27
2023-04-29T05:02:37.035Z,10.87
2023-04-29T05:04:42.728Z,10.67
2023-04-29T05:06:46.641Z,10.60
2023-04-29T05:08:49.600Z,10.40
2023-04-29T05:10:54.178Z,10.43
2023-04-29T05:12:58.812Z,10.57
2023-04-29T05:15:04.336Z,10.03
2023-04-29T05:17:10.020Z,10.57
2023-04-29T05:19:12.990Z,11.40
2023-04-29T05:21:17.755Z,10.93
2023-04-29T05:23:21.374Z,10.67
2023-04-29T05:25:24.256Z,11.10
2023-04-29T05:27:27.289Z,11.63
2023-04-29T05:29:32.214Z,12.20
2023-04-29T05:31:39.611Z,11.07
2023-04-29T05:33:43.298Z,10.67
2023-04-29T05:35:46.437Z,11.33
2023-04-29T05:37:49.431Z,10.93
2023-04-29T05:40:11.326Z,11.70
2023-04-29T05:42:14.239Z,10.40
2023-04-29T05:44:22.790Z,10.57
2023-04-29T05:46:29.339Z,11.43
2023-04-29T05:48:33.344Z,10.67
2023-04-29T05:50:38.392Z,10.87
2023-04-29T05:52:44.227Z,11.50
2023-04-29T05:54:47.150Z,10.30
2023-04-29T05:56:50.322Z,10.93
2023-04-29T05:58:55.527Z,10.53
2023-04-29T06:00:59.978Z,11.23
2023-04-29T06:03:04.937Z,10.73
2023-04-29T06:05:10.930Z,11.13
2023-04-29T06:07:39.967Z,10.97
2023-04-29T06:09:59.365Z,11.17
2023-04-29T06:12:06.362Z,10.07
2023-04-29T06:14:09.229Z,10.10
2023-04-29T06:16:13.439Z,10.03
2023-04-29T06:18:17.829Z,9.87
2023-04-29T06:20:22.726Z,10.23
2023-04-29T06:22:26.906Z,10.33
2023-04-29T06:24:33.666Z,10.10
2023-04-29T06:26:37.415Z,9.97
2023-04-29T06:28:44.304Z,10.33
2023-04-29T06:30:47.715Z,9.63
2023-04-29T06:32:51.177Z,9.63
2023-04-29T06:34:55.849Z,9.07
2023-04-29T06:37:02.986Z,8.37
2023-04-29T06:39:31.675Z,8.23
2023-04-29T06:42:01.127Z,7.93
2023-04-29T06:44:27.712Z,7.03
2023-04-29T06:46:50.991Z,7.20
2023-04-29T06:49:04.516Z,8.10
2023-04-29T06:51:09.834Z,7.80
2023-04-29T06:53:14.203Z,7.57
2023-04-29T06:55:17.933Z,7.73
2023-04-29T06:57:21.794Z,7.97
2023-04-29T06:59:29.522Z,7.00
2023-04-29T07:01:32.714Z,7.20
2023-04-29T07:03:37.479Z,7.30
2023-04-29T07:05:42.086Z,7.00
2023-04-29T07:07:46.420Z,6.37
2023-04-29T07:09:54.857Z,6.80
2023-04-29T07:11:59.076Z,6.37
2023-04-29T07:14:02.006Z,6.80
2023-04-29T07:16:08.571Z,6.37
2023-04-29T07:18:14.924Z,5.97
2023-04-29T07:20:21.341Z,6.17
2023-04-29T07:22:31.721Z,6.00
2023-04-29T07:24:36.001Z,6.17
2023-04-29T07:26:41.330Z,5.90
2023-04-29T07:28:45.062Z,6.40
2023-04-29T07:30:47.953Z,6.60
2023-04-29T07:32:52.599Z,6.93
2023-04-29T07:34:58.417Z,7.07
2023-04-29T07:37:01.823Z,7.20
2023-04-29T07:39:04.955Z,7.07
2023-04-29T07:41:09.526Z,7.07
2023-04-29T07:43:13.022Z,6.50
2023-04-29T07:45:15.924Z,7.30
2023-04-29T07:47:19.898Z,6.30
2023-04-29T07:49:23.128Z,7.40
2023-04-29T07:51:28.835Z,7.20
2023-04-29T07:53:31.748Z,7.50
2023-04-29T07:55:38.712Z,6.80
2023-04-29T07:57:43.450Z,7.00
2023-04-29T07:59:46.680Z,7.60
2023-04-29T08:01:49.675Z,7.37
2023-04-29T08:03:52.795Z,6.80
2023-04-29T08:06:04.128Z,7.30
2023-04-29T08:08:07.338Z,6.60
2023-04-29T08:10:11.313Z,7.20
2023-04-29T08:12:14.215Z,6.93
2023-04-29T08:14:21.306Z,7.53
2023-04-29T08:16:26.997Z,7.03
2023-04-29T08:18:30.051Z,7.97
2023-04-29T08:20:33.734Z,7.33
2023-04-29T08:22:37.839Z,7.00
2023-04-29T08:24:44.784Z,7.43
2023-04-29T08:26:50.112Z,7.57
2023-04-29T08:28:54.949Z,7.27
2023-04-29T08:31:07.027Z,7.93
2023-04-29T08:33:10.277Z,6.97
2023-04-29T08:35:13.393Z,7.23
2023-04-29T08:37:18.385Z,7.40
2023-04-29T08:39:22.876Z,7.27
2023-04-29T08:41:26.728Z,7.63
2023-04-29T08:43:30.543Z,7.67
2023-04-29T08:45:35.549Z,6.87
2023-04-29T08:47:40.764Z,7.67
2023-04-29T08:49:44.157Z,8.27
2023-04-29T08:51:49.615Z,7.73
2023-04-29T08:53:52.461Z,8.20
2023-04-29T08:55:56.670Z,7.13
2023-04-29T08:57:59.690Z,7.30
2023-04-29T09:00:03.030Z,7.23
2023-04-29T09:02:11.381Z,6.80
2023-04-29T09:04:21.337Z,7.70
2023-04-29T09:06:24.247Z,6.87
2023-04-29T09:08:29.819Z,7.83
2023-04-29T09:10:34.100Z,6.90
2023-04-29T09:12:39.993Z,6.63
2023-04-29T09:14:45.317Z,6.00
2023-04-29T09:16:48.549Z,6.20
2023-04-29T09:18:52.741Z,6.57
2023-04-29T09:20:56.968Z,6.10
2023-04-29T09:23:02.852Z,6.07
2023-04-29T09:25:13.662Z,5.67
2023-04-29T09:27:29.035Z,6.13
2023-04-29T09:29:34.065Z,6.23
2023-04-29T09:31:39.117Z,7.37
2023-04-29T09:33:54.610Z,7.20
2023-04-29T09:35:59.506Z,6.53
2023-04-29T09:38:20.990Z,6.40
2023-04-29T09:40:31.937Z,6.90
2023-04-29T09:42:44.162Z,6.30
2023-04-29T09:44:49.110Z,6.83
2023-04-29T09:46:57.213Z,6.40
2023-04-29T09:49:02.436Z,6.50
2023-04-29T09:51:07.172Z,5.60
2023-04-29T09:53:11.351Z,5.73
2023-04-29T09:55:15.839Z,5.87
2023-04-29T09:57:19.163Z,5.07
2023-04-29T09:59:27.121Z,5.67
2023-04-29T10:01:31.969Z,5.47
2023-04-29T10:03:45.202Z,5.70
2023-04-29T10:05:51.211Z,6.17
2023-04-29T10:07:56.655Z,6.03
2023-04-29T10:10:01.771Z,5.57
2023-04-29T10:12:08.449Z,5.57
2023-04-29T10:14:14.589Z,6.30
2023-04-29T10:16:28.874Z,7.00
2023-04-29T10:18:38.180Z,7.10
2023-04-29T10:20:46.873Z,6.30
2023-04-29T10:22:51.079Z,6.47
2023-04-29T10:24:59.156Z,6.80
2023-04-29T10:27:03.625Z,6.37
2023-04-29T10:29:10.058Z,6.80
2023-04-29T10:31:16.835Z,6.60
2023-04-29T10:33:20.355Z,5.80
2023-04-29T10:35:25.283Z,6.30
2023-04-29T10:37:28.548Z,6.83
2023-04-29T10:39:37.270Z,6.10
2023-04-29T10:41:47.870Z,6.30
2023-04-29T10:43:51.208Z,5.07
2023-04-29T10:46:18.838Z,5.67
2023-04-29T10:48:24.454Z,5.13
2023-04-29T10:50:31.297Z,5.00
2023-04-29T10:52:52.738Z,5.23
2023-04-29T10:55:03.373Z,5.13
2023-04-29T10:57:07.573Z,5.53
2023-04-29T10:59:12.974Z,5.53
2023-04-29T11:01:17.639Z,4.97
2023-04-29T11:03:49.299Z,5.03
2023-04-29T11:06:10.038Z,4.90
2023-04-29T11:08:16.376Z,4.50
2023-04-29T11:10:19.501Z,4.17
2023-04-29T11:12:23.762Z,4.63
2023-04-29T11:14:27.981Z,4.37
2023-04-29T11:16:30.984Z,4.47
2023-04-29T11:18:34.916Z,4.23
2023-04-29T11:21:13.937Z,4.47
2023-04-29T11:23:20.885Z,4.47
2023-04-29T11:25:28.417Z,4.87
2023-04-29T11:27:33.612Z,4.20
2023-04-29T11:29:39.455Z,4.50
2023-04-29T11:31:42.409Z,4.77
2023-04-29T11:33:50.003Z,4.17
2023-04-29T11:35:53.189Z,4.63
2023-04-29T11:37:56.558Z,4.33
2023-04-29T11:40:02.117Z,4.70
2023-04-29T11:42:06.177Z,4.57
2023-04-29T11:44:14.177Z,4.20
2023-04-29T11:46:17.102Z,4.23
2023-04-29T11:48:20.544Z,4.23
2023-04-29T11:50:23.550Z,4.00
2023-04-29T11:52:26.458Z,4.90
2023-04-29T11:54:30.389Z,4.37
2023-04-29T11:56:33.343Z,3.93
2023-04-29T11:58:37.501Z,4.10
2023-04-29T12:00:41.929Z,3.43
2023-04-29T12:02:47.095Z,2.97
2023-04-29T12:04:53.151Z,3.00
2023-04-29T12:06:59.694Z,2.80
2023-04-29T12:09:04.522Z,3.17
2023-04-29T12:11:08.828Z,2.77
2023-04-29T12:13:12.143Z,2.47
2023-04-29T12:15:15.802Z,2.70
2023-04-29T12:17:21.048Z,2.30
2023-04-29T12:19:24.813Z,2.70
2023-04-29T12:21:28.685Z,2.30
2023-04-29T12:23:31.697Z,2.70
2023-04-29T12:25:41.836Z,2.33
2023-04-29T12:27:44.708Z,2.00
2023-04-29T12:29:50.152Z,2.10
2023-04-29T12:31:53.240Z,2.50
2023-04-29T12:34:00.113Z,2.30
2023-04-29T12:36:03.199Z,2.30
2023-04-29T12:38:09.521Z,2.40
2023-04-29T12:40:16.301Z,2.30
2023-04-29T12:42:19.275Z,2.33
2023-04-29T12:44:25.096Z,2.70
2023-04-29T12:46:27.967Z,2.70
2023-04-29T12:48:33.447Z,3.07
2023-04-29T12:50:39.035Z,3.60
2023-04-29T12:52:43.904Z,3.20
2023-04-29T12:54:46.789Z,3.40
2023-04-29T12:56:50.461Z,3.80
2023-04-29T12:58:53.532Z,3.57
2023-04-29T13:00:59.317Z,3.50
2023-04-29T13:03:02.467Z,3.47
2023-04-29T13:05:07.275Z,3.10
2023-04-29T13:07:12.981Z,3.30
2023-04-29T13:09:18.933Z,3.47
2023-04-29T13:11:22.317Z,3.47
2023-04-29T13:13:27.716Z,3.27
2023-04-29T13:15:30.687Z,3.50
2023-04-29T13:17:33.625Z,3.23
2023-04-29T13:19:50.509Z,3.37
2023-04-29T13:21:56.665Z,3.67
2023-04-29T13:24:01.045Z,3.70
2023-04-29T13:26:08.788Z,3.93
2023-04-29T13:28:13.413Z,4.10
2023-04-29T13:30:17.502Z,4.20
2023-04-29T13:32:24.567Z,4.00
2023-04-29T13:34:28.007Z,4.00
2023-04-29T13:36:30.892Z,4.50
2023-04-29T13:38:33.861Z,4.37
2023-04-29T13:40:40.677Z,4.07
2023-04-29T13:42:50.521Z,4.63
2023-04-29T13:44:57.316Z,4.57
2023-04-29T13:47:01.546Z,4.70
2023-04-29T13:49:29.197Z,4.27
2023-04-29T13:54:10.678Z,4.30
2023-04-29T14:00:31.639Z,4.30
2023-04-29T14:02:34.598Z,4.10
2023-04-29T14:04:39.227Z,4.50
2023-04-29T14:06:44.482Z,4.57
2023-04-29T14:08:47.406Z,4.50
2023-04-29T14:10:50.558Z,4.50
2023-04-29T14:12:55.100Z,4.20
2023-04-29T14:15:00.154Z,4.30
2023-04-29T14:17:03.800Z,4.57
2023-04-29T14:19:08.196Z,4.90
2023-04-29T14:21:16.121Z,4.60
2023-04-29T14:23:21.579Z,4.80
2023-04-29T14:25:25.670Z,4.37
2023-04-29T14:27:29.583Z,4.53
2023-04-29T14:29:33.928Z,4.53
2023-04-29T14:31:38.884Z,4.30
2023-04-29T14:33:42.859Z,4.73
2023-04-29T14:35:46.301Z,4.60
2023-04-29T14:37:50.463Z,4.70
2023-04-29T14:39:54.374Z,4.43
2023-04-29T14:41:58.328Z,4.33
2023-04-29T14:44:01.351Z,4.80
2023-04-29T14:46:08.311Z,4.60
2023-04-29T14:48:11.210Z,4.37
2023-04-29T14:50:16.525Z,4.80
2023-04-29T14:52:20.730Z,4.30
2023-04-29T14:54:24.616Z,4.03
2023-04-29T14:56:27.851Z,3.47
2023-04-29T14:58:30.899Z,3.60
2023-04-29T15:00:36.090Z,3.60
2023-04-29T15:02:41.603Z,3.37
2023-04-29T15:04:46.034Z,3.43
2023-04-29T15:06:50.774Z,2.80
2023-04-29T15:08:54.976Z,3.17
2023-04-29T15:10:57.914Z,3.20
2023-04-29T15:13:01.062Z,3.80
2023-04-29T15:15:04.777Z,3.33
2023-04-29T15:17:07.937Z,3.20
2023-04-29T15:19:13.810Z,3.03
2023-04-29T15:21:17.195Z,3.00
2023-04-29T15:23:20.081Z,3.63
2023-04-29T15:25:28.098Z,3.13
2023-04-29T15:27:56.705Z,4.03
2023-04-29T15:30:02.042Z,3.40
2023-04-29T15:32:05.185Z,4.30
2023-04-29T15:34:08.089Z,3.43
2023-04-29T15:36:13.205Z,3.90
2023-04-29T15:38:16.341Z,3.70
2023-04-29T15:40:20.013Z,3.90
2023-04-29T15:42:23.686Z,3.90
2023-04-29T15:44:26.653Z,3.57
2023-04-29T15:46:32.224Z,3.77
2023-04-29T15:48:35.289Z,4.20
2023-04-29T15:50:40.223Z,3.50
2023-04-29T15:52:46.470Z,3.63
2023-04-29T15:54:50.611Z,4.17
2023-04-29T15:56:53.794Z,3.83
2023-04-29T15:58:57.829Z,3.50
2023-04-29T16:01:00.800Z,3.87
2023-04-29T16:03:04.051Z,3.57
2023-04-29T16:05:07.537Z,4.00
2023-04-29T16:07:11.285Z,3.57
2023-04-29T16:09:17.511Z,3.53
2023-04-29T16:11:21.202Z,3.67
2023-04-29T16:13:24.428Z,3.83
2023-04-29T16:15:27.414Z,4.47
2023-04-29T16:17:30.314Z,4.30
2023-04-29T16:19:35.912Z,4.37
2023-04-29T16:21:41.423Z,4.40
2023-04-29T16:23:44.427Z,4.73
2023-04-29T16:25:49.314Z,4.87
2023-04-29T16:27:52.305Z,4.70
2023-04-29T16:29:55.977Z,5.20
2023-04-29T16:31:59.047Z,6.30
2023-04-29T16:34:03.207Z,5.90
2023-04-29T16:36:08.204Z,5.57
2023-04-29T16:38:13.611Z,5.73
2023-04-29T16:40:16.631Z,5.17
2023-04-29T16:42:21.581Z,5.67
2023-04-29T16:44:25.785Z,5.13
2023-04-29T16:46:30.212Z,5.50
2023-04-29T16:48:35.911Z,6.63
2023-04-29T16:50:41.188Z,6.50
2023-04-29T16:52:47.000Z,6.60
2023-04-29T16:54:49.951Z,6.17
2023-04-29T16:56:52.900Z,6.27
2023-04-29T16:58:57.098Z,6.03
2023-04-29T17:01:00.294Z,6.30
2023-04-29T17:03:03.904Z,5.97
2023-04-29T17:05:08.868Z,6.30
2023-04-29T17:07:13.943Z,6.03
2023-04-29T17:09:17.641Z,5.67
2023-04-29T17:11:20.936Z,6.10
2023-04-29T17:13:25.781Z,6.30
2023-04-29T17:15:30.075Z,6.30
2023-04-29T17:17:33.274Z,6.10
2023-04-29T17:19:37.107Z,6.27
2023-04-29T17:21:41.499Z,6.50
2023-04-29T17:23:48.507Z,6.50
2023-04-29T17:25:51.420Z,5.83
2023-04-29T17:27:54.390Z,6.23
2023-04-29T17:29:57.580Z,6.13
2023-04-29T17:32:09.813Z,6.03
2023-04-29T17:34:18.545Z,6.07
2023-04-29T17:36:25.970Z,6.77
2023-04-29T17:38:29.338Z,6.90
2023-04-29T17:40:34.637Z,6.63
2023-04-29T17:42:37.557Z,6.83
2023-04-29T17:44:40.719Z,7.50
2023-04-29T17:46:43.900Z,7.77
2023-04-29T17:48:48.160Z,8.37
2023-04-29T17:50:51.089Z,8.37
2023-04-29T17:52:53.966Z,8.83
2023-04-29T17:54:58.913Z,9.27
2023-04-29T17:57:03.192Z,9.13
2023-04-29T17:59:06.971Z,8.90
2023-04-29T18:01:10.272Z,8.87
2023-04-29T18:03:14.736Z,8.53
2023-04-29T18:05:20.907Z,8.63
2023-04-29T18:07:23.782Z,9.00
2023-04-29T18:09:28.361Z,8.50
2023-04-29T18:11:31.649Z,8.73
2023-04-29T18:13:34.499Z,9.30
2023-04-29T18:15:37.830Z,8.93
2023-04-29T18:17:40.872Z,9.30
2023-04-29T18:19:43.955Z,9.30
2023-04-29T18:21:48.135Z,9.20
2023-04-29T18:23:51.073Z,9.50
2023-04-29T18:25:57.108Z,9.13
2023-04-29T18:28:18.802Z,9.43
2023-04-29T18:30:22.909Z,8.67
2023-04-29T18:32:25.808Z,9.40
2023-04-29T18:34:28.699Z,9.97
2023-04-29T18:36:32.044Z,9.83
2023-04-29T18:38:36.543Z,10.80
2023-04-29T18:40:40.751Z,11.23
2023-04-29T18:42:43.872Z,11.53
2023-04-29T18:44:48.170Z,10.73
2023-04-29T18:46:52.202Z,11.60
2023-04-29T18:48:55.355Z,10.20
2023-04-29T18:51:00.153Z,11.60
2023-04-29T18:53:03.100Z,10.97
2023-04-29T18:55:08.111Z,10.87
2023-04-29T18:57:11.225Z,10.90
2023-04-29T18:59:18.798Z,11.87
2023-04-29T19:01:21.710Z,11.37
2023-04-29T19:03:27.078Z,11.60
2023-04-29T19:05:30.156Z,11.73
2023-04-29T19:07:37.646Z,11.40
2023-04-29T19:09:40.495Z,10.50
2023-04-29T19:11:44.804Z,12.40
2023-04-29T19:13:47.669Z,11.53
2023-04-29T19:15:55.062Z,11.43
2023-04-29T19:17:58.092Z,12.20
2023-04-29T19:20:01.094Z,11.83
2023-04-29T19:22:07.273Z,11.83
2023-04-29T19:24:11.696Z,11.50
2023-04-29T19:26:14.874Z,11.53
2023-04-29T19:28:19.274Z,11.57
2023-04-29T19:30:22.226Z,11.73
2023-04-29T19:32:26.279Z,11.33
2023-04-29T19:34:30.145Z,11.97
2023-04-29T19:36:34.653Z,11.67
2023-04-29T19:38:37.500Z,12.50
2023-04-29T19:40:40.870Z,12.27
2023-04-29T19:42:43.854Z,11.87
2023-04-29T19:44:48.082Z,12.33
2023-04-29T19:46:51.703Z,12.73
2023-04-29T19:48:54.891Z,12.27
2023-04-29T19:50:59.519Z,12.30
2023-04-29T19:53:02.409Z,12.20
2023-04-29T19:55:06.249Z,14.17
2023-04-29T19:57:09.211Z,14.27
2023-04-29T19:59:14.117Z,13.23
2023-04-29T20:01:18.568Z,12.07
2023-04-29T20:03:21.854Z,12.30
2023-04-29T20:05:24.971Z,13.03
2023-04-29T20:07:29.041Z,12.90
2023-04-29T20:09:39.086Z,12.63
2023-04-29T20:11:42.009Z,14.33
2023-04-29T20:13:45.753Z,14.10
2023-04-29T20:15:49.787Z,14.00
2023-04-29T20:17:54.150Z,13.37
2023-04-29T20:19:57.053Z,14.40
2023-04-29T20:22:00.246Z,14.10
2023-04-29T20:24:05.583Z,14.37
2023-04-29T20:26:08.522Z,13.43
2023-04-29T20:28:11.478Z,13.87
2023-04-29T20:30:21.686Z,13.90
2023-04-29T20:32:24.803Z,13.93
2023-04-29T20:34:29.779Z,14.37
2023-04-29T20:36:32.793Z,13.83
2023-04-29T20:38:36.289Z,13.60
2023-04-29T20:40:40.214Z,14.27
2023-04-29T20:42:44.379Z,14.30
2023-04-29T20:44:47.295Z,13.83
2023-04-29T20:46:50.446Z,14.30
2023-04-29T20:48:53.542Z,14.00
2023-04-29T20:50:59.457Z,14.17
2023-04-29T20:53:02.298Z,13.93
2023-04-29T20:55:05.736Z,14.17
2023-04-29T20:57:10.968Z,13.80
2023-04-29T20:59:14.106Z,13.97
2023-04-29T21:01:19.471Z,13.33
2023-04-29T21:03:23.071Z,13.03
2023-04-29T21:05:25.967Z,13.70
2023-04-29T21:07:31.392Z,12.90
2023-04-29T21:09:38.370Z,13.83
2023-04-29T21:11:41.260Z,13.47
2023-04-29T21:13:49.650Z,13.73
2023-04-29T21:15:53.154Z,13.43
2023-04-29T21:17:56.585Z,13.73
2023-04-29T21:19:59.613Z,13.50
2023-04-29T21:22:02.696Z,13.40
2023-04-29T21:24:10.150Z,13.27
2023-04-29T21:26:14.999Z,13.90
2023-04-29T21:28:17.944Z,13.43
2023-04-29T21:30:21.053Z,14.50
2023-04-29T21:32:24.340Z,14.17
2023-04-29T21:34:27.234Z,14.20
2023-04-29T21:36:34.817Z,14.13
2023-04-29T21:38:40.412Z,13.97
2023-04-29T21:40:48.725Z,15.03
2023-04-29T21:42:52.004Z,14.30
2023-04-29T21:44:55.598Z,14.13
2023-04-29T21:46:59.622Z,15.93
2023-04-29T21:49:03.976Z,15.87
2023-04-29T21:51:08.573Z,16.13
2023-04-29T21:53:13.190Z,16.53
2023-04-29T21:55:17.697Z,16.27
2023-04-29T21:57:35.687Z,15.67
2023-04-29T21:59:46.476Z,15.53
2023-04-29T22:02:03.374Z,15.60
2023-04-29T22:04:06.862Z,15.17
2023-04-29T22:06:10.306Z,16.90
2023-04-29T22:08:17.276Z,15.00
2023-04-29T22:10:23.410Z,16.97
2023-04-29T22:12:32.647Z,18.27
2023-04-29T22:14:35.540Z,17.87
2023-04-29T22:16:41.131Z,19.53
2023-04-29T22:18:44.112Z,19.00
2023-04-29T22:20:46.940Z,19.90
2023-04-29T22:22:52.675Z,19.43
2023-04-29T22:24:55.741Z,18.90
2023-04-29T22:26:58.849Z,18.67
2023-04-29T22:29:04.843Z,17.23
2023-04-29T22:31:10.595Z,17.93
2023-04-29T22:33:14.257Z,16.53
2023-04-29T22:35:17.388Z,17.30
2023-04-29T22:37:20.525Z,17.73
2023-04-29T22:39:23.408Z,17.63
2023-04-29T22:41:26.949Z,17.87
2023-04-29T22:43:29.991Z,17.53
2023-04-29T22:45:37.363Z,17.63
2023-04-29T22:47:44.898Z,17.60
2023-04-29T22:49:47.946Z,17.63
2023-04-29T22:51:50.778Z,17.67
2023-04-29T22:53:53.611Z,17.93
2023-04-29T22:55:59.094Z,19.20
2023-04-29T22:58:01.965Z,18.73
2023-04-29T23:00:07.706Z,19.47
2023-04-29T23:02:12.026Z,18.10
2023-04-29T23:04:17.992Z,19.07
2023-04-29T23:06:21.472Z,18.60
2023-04-29T23:08:24.458Z,18.87
2023-04-29T23:10:27.366Z,18.40
2023-04-29T23:12:31.484Z,19.93
2023-04-29T23:14:34.348Z,18.77
2023-04-29T23:16:38.904Z,19.87
2023-04-29T23:18:43.147Z,20.63
2023-04-29T23:20:57.392Z,18.93
2023-04-29T23:23:02.293Z,19.03
2023-04-29T23:25:06.691Z,18.37
2023-04-29T23:27:11.646Z,18.40
2023-04-29T23:29:14.490Z,19.03
2023-04-29T23:31:18.620Z,17.73
2023-04-29T23:33:21.532Z,18.33
2023-04-29T23:35:27.093Z,18.37
2023-04-29T23:37:29.996Z,18.57
2023-04-29T23:39:33.155Z,18.37
2023-04-29T23:41:35.982Z,19.50
2023-04-29T23:43:39.579Z,19.40
2023-04-29T23:45:44.908Z,18.97
2023-04-29T23:47:47.989Z,20.00
2023-04-29T23:49:54.910Z,20.93
2023-04-29T23:51:59.455Z,20.30
2023-04-29T23:54:02.434Z,19.80
2023-04-29T23:56:08.122Z,20.60
2023-04-29T23:58:11.316Z,22.37
